sensor_id;sensor_type;location;lat;lon;timestamp;pressure;altitude;pressure_sealevel;temperature;humidity
21290;BME280;10804;48.988;2.408;2022-12-07T00:01:40;101440.97;;;6.33;66.44
21290;BME280;10804;48.988;2.408;2022-12-07T00:04:11;101442.72;;;6.34;66.12
21290;BME280;10804;48.988;2.408;2022-12-07T00:06:40;101441.84;;;6.35;65.97
21290;BME280;10804;48.988;2.408;2022-12-07T00:09:11;101441.00;;;6.36;66.19
21290;BME280;10804;48.988;2.408;2022-12-07T00:11:38;101437.53;;;6.39;65.74
21290;BME280;10804;48.988;2.408;2022-12-07T00:14:07;101439.25;;;6.35;65.94
21290;BME280;10804;48.988;2.408;2022-12-07T00:16:36;101433.22;;;6.32;66.02
21290;BME280;10804;48.988;2.408;2022-12-07T00:19:04;101423.72;;;6.35;65.97
21290;BME280;10804;48.988;2.408;2022-12-07T00:21:34;101418.53;;;6.26;66.01
21290;BME280;10804;48.988;2.408;2022-12-07T00:24:03;101424.56;;;6.30;65.90
21290;BME280;10804;48.988;2.408;2022-12-07T00:26:33;101428.00;;;6.33;65.83
21290;BME280;10804;48.988;2.408;2022-12-07T00:29:03;101427.16;;;6.30;65.97
21290;BME280;10804;48.988;2.408;2022-12-07T00:31:33;101422.84;;;6.30;65.80
21290;BME280;10804;48.988;2.408;2022-12-07T00:34:01;101413.34;;;6.31;65.92
21290;BME280;10804;48.988;2.408;2022-12-07T00:36:29;101411.63;;;6.30;65.77
21290;BME280;10804;48.988;2.408;2022-12-07T00:38:59;101422.81;;;6.29;65.89
21290;BME280;10804;48.988;2.408;2022-12-07T00:41:28;101418.50;;;6.28;66.04
21290;BME280;10804;48.988;2.408;2022-12-07T00:43:56;101417.66;;;6.32;65.83
21290;BME280;10804;48.988;2.408;2022-12-07T00:46:24;101417.63;;;6.29;65.75
21290;BME280;10804;48.988;2.408;2022-12-07T00:48:52;101417.66;;;6.32;65.63
21290;BME280;10804;48.988;2.408;2022-12-07T00:51:22;101415.94;;;6.34;65.76
21290;BME280;10804;48.988;2.408;2022-12-07T00:53:50;101418.50;;;6.32;65.64
21290;BME280;10804;48.988;2.408;2022-12-07T00:56:20;101418.53;;;6.31;65.77
21290;BME280;10804;48.988;2.408;2022-12-07T00:58:53;101415.06;;;6.27;65.85
21290;BME280;10804;48.988;2.408;2022-12-07T01:01:22;101409.88;;;6.35;65.71
21290;BME280;10804;48.988;2.408;2022-12-07T01:03:50;101408.16;;;6.29;65.84
21290;BME280;10804;48.988;2.408;2022-12-07T01:06:19;101400.38;;;6.32;65.59
21290;BME280;10804;48.988;2.408;2022-12-07T01:08:47;101401.28;;;6.34;65.41
21290;BME280;10804;48.988;2.408;2022-12-07T01:11:18;101404.69;;;6.33;65.65
21290;BME280;10804;48.988;2.408;2022-12-07T01:13:48;101396.94;;;6.30;65.67
21290;BME280;10804;48.988;2.408;2022-12-07T01:16:16;101395.22;;;6.35;65.49
21290;BME280;10804;48.988;2.408;2022-12-07T01:18:46;101397.78;;;6.32;65.67
21290;BME280;10804;48.988;2.408;2022-12-07T01:21:16;101391.75;;;6.39;65.36
21290;BME280;10804;48.988;2.408;2022-12-07T01:23:44;101399.53;;;6.35;65.71
21290;BME280;10804;48.988;2.408;2022-12-07T01:26:13;101393.50;;;6.34;65.64
21290;BME280;10804;48.988;2.408;2022-12-07T01:28:42;101392.63;;;6.35;65.42
21290;BME280;10804;48.988;2.408;2022-12-07T01:31:12;101391.75;;;6.39;65.38
21290;BME280;10804;48.988;2.408;2022-12-07T01:33:42;101392.63;;;6.37;65.64
21290;BME280;10804;48.988;2.408;2022-12-07T01:36:14;101389.16;;;6.35;65.59
21290;BME280;10804;48.988;2.408;2022-12-07T01:38:42;101391.75;;;6.33;65.64
21290;BME280;10804;48.988;2.408;2022-12-07T01:41:10;101390.91;;;6.33;65.68
21290;BME280;10804;48.988;2.408;2022-12-07T01:46:52;101393.47;;;6.36;65.50
21290;BME280;10804;48.988;2.408;2022-12-07T01:49:25;101392.63;;;6.37;65.69
21290;BME280;10804;48.988;2.408;2022-12-07T01:52:03;101390.03;;;6.34;65.62
21290;BME280;10804;48.988;2.408;2022-12-07T01:54:33;101390.06;;;6.35;65.47
21290;BME280;10804;48.988;2.408;2022-12-07T01:57:01;101383.13;;;6.33;65.53
21290;BME280;10804;48.988;2.408;2022-12-07T01:59:28;101386.56;;;6.33;65.42
21290;BME280;10804;48.988;2.408;2022-12-07T02:01:57;101382.28;;;6.35;65.17
21290;BME280;10804;48.988;2.408;2022-12-07T02:04:24;101388.31;;;6.33;65.53
21290;BME280;10804;48.988;2.408;2022-12-07T02:06:53;101382.28;;;6.31;65.64
21290;BME280;10804;48.988;2.408;2022-12-07T02:09:21;101391.75;;;6.29;65.51
21290;BME280;10804;48.988;2.408;2022-12-07T02:11:49;101386.56;;;6.29;65.82
21290;BME280;10804;48.988;2.408;2022-12-07T02:14:17;101388.31;;;6.31;65.46
21290;BME280;10804;48.988;2.408;2022-12-07T02:16:54;101382.25;;;6.32;65.35
21290;BME280;10804;48.988;2.408;2022-12-07T02:23:23;101385.69;;;6.25;65.56
21290;BME280;10804;48.988;2.408;2022-12-07T02:26:37;101378.78;;;6.24;65.31
21290;BME280;10804;48.988;2.408;2022-12-07T02:29:18;101386.56;;;6.26;65.42
21290;BME280;10804;48.988;2.408;2022-12-07T02:31:53;101377.94;;;6.24;65.49
21290;BME280;10804;48.988;2.408;2022-12-07T02:34:28;101385.69;;;6.22;65.45
21290;BME280;10804;48.988;2.408;2022-12-07T02:37:01;101391.75;;;6.23;65.56
21290;BME280;10804;48.988;2.408;2022-12-07T02:39:36;101378.78;;;6.24;65.34
21290;BME280;10804;48.988;2.408;2022-12-07T02:42:12;101384.84;;;6.25;65.44
21290;BME280;10804;48.988;2.408;2022-12-07T02:44:43;101373.59;;;6.24;65.31
21290;BME280;10804;48.988;2.408;2022-12-07T02:47:14;101371.88;;;6.19;65.57
21290;BME280;10804;48.988;2.408;2022-12-07T02:49:44;101373.63;;;6.21;65.83
21290;BME280;10804;48.988;2.408;2022-12-07T02:52:12;101367.56;;;6.22;65.43
21290;BME280;10804;48.988;2.408;2022-12-07T02:54:39;101381.38;;;6.20;65.20
21290;BME280;10804;48.988;2.408;2022-12-07T02:57:22;101376.22;;;6.18;65.49
21290;BME280;10804;48.988;2.408;2022-12-07T03:00:01;101371.88;;;6.19;65.85
21290;BME280;10804;48.988;2.408;2022-12-07T03:02:38;101376.19;;;6.17;65.43
21290;BME280;10804;48.988;2.408;2022-12-07T03:05:20;101369.28;;;6.19;65.62
21290;BME280;10804;48.988;2.408;2022-12-07T03:07:59;101366.69;;;6.17;65.53
21290;BME280;10804;48.988;2.408;2022-12-07T03:10:35;101368.41;;;6.14;65.82
21290;BME280;10804;48.988;2.408;2022-12-07T03:13:09;101370.13;;;6.10;65.54
21290;BME280;10804;48.988;2.408;2022-12-07T03:15:45;101374.44;;;6.13;65.69
21290;BME280;10804;48.988;2.408;2022-12-07T03:18:17;101368.44;;;6.18;65.59
21290;BME280;10804;48.988;2.408;2022-12-07T03:20:48;101367.56;;;6.13;65.52
21290;BME280;10804;48.988;2.408;2022-12-07T03:23:17;101364.94;;;6.10;65.69
21290;BME280;10804;48.988;2.408;2022-12-07T03:25:48;101363.25;;;6.12;65.56
21290;BME280;10804;48.988;2.408;2022-12-07T03:28:19;101360.63;;;6.14;65.54
21290;BME280;10804;48.988;2.408;2022-12-07T03:30:55;101366.69;;;6.13;65.61
21290;BME280;10804;48.988;2.408;2022-12-07T03:33:26;101360.63;;;6.14;65.55
21290;BME280;10804;48.988;2.408;2022-12-07T03:36:00;101358.94;;;6.11;65.56
21290;BME280;10804;48.988;2.408;2022-12-07T03:38:32;101352.84;;;6.09;65.44
21290;BME280;10804;48.988;2.408;2022-12-07T03:41:03;101358.06;;;6.12;65.42
21290;BME280;10804;48.988;2.408;2022-12-07T03:43:34;101359.75;;;6.10;65.53
21290;BME280;10804;48.988;2.408;2022-12-07T03:46:08;101351.13;;;6.08;65.59
21290;BME280;10804;48.988;2.408;2022-12-07T03:48:41;101358.94;;;6.11;65.56
21290;BME280;10804;48.988;2.408;2022-12-07T03:51:16;101358.06;;;6.12;65.63
21290;BME280;10804;48.988;2.408;2022-12-07T03:53:48;101356.34;;;6.11;65.66
21290;BME280;10804;48.988;2.408;2022-12-07T03:56:19;101342.53;;;6.12;65.50
21290;BME280;10804;48.988;2.408;2022-12-07T03:58:48;101337.31;;;6.09;65.40
21290;BME280;10804;48.988;2.408;2022-12-07T04:01:19;101344.25;;;6.15;65.67
21290;BME280;10804;48.988;2.408;2022-12-07T04:03:46;101331.28;;;6.12;65.58
21290;BME280;10804;48.988;2.408;2022-12-07T04:06:13;101342.50;;;6.09;65.53
21290;BME280;10804;48.988;2.408;2022-12-07T04:08:41;101337.31;;;6.09;65.66
21290;BME280;10804;48.988;2.408;2022-12-07T04:11:08;101339.91;;;6.11;65.64
21290;BME280;10804;48.988;2.408;2022-12-07T04:13:36;101348.56;;;6.16;65.47
21290;BME280;10804;48.988;2.408;2022-12-07T04:16:18;101344.25;;;6.12;65.41
21290;BME280;10804;48.988;2.408;2022-12-07T04:18:46;101348.56;;;6.11;65.54
21290;BME280;10804;48.988;2.408;2022-12-07T04:21:13;101345.09;;;6.15;65.40
21290;BME280;10804;48.988;2.408;2022-12-07T04:23:40;101346.81;;;6.12;65.37
21290;BME280;10804;48.988;2.408;2022-12-07T04:26:08;101339.91;;;6.11;65.59
21290;BME280;10804;48.988;2.408;2022-12-07T04:28:35;101336.47;;;6.13;65.33
21290;BME280;10804;48.988;2.408;2022-12-07T04:31:02;101339.91;;;6.11;65.51
21290;BME280;10804;48.988;2.408;2022-12-07T04:33:31;101339.03;;;6.10;65.54
21290;BME280;10804;48.988;2.408;2022-12-07T04:35:58;101344.25;;;6.13;65.52
21290;BME280;10804;48.988;2.408;2022-12-07T04:38:26;101341.66;;;6.15;65.38
21290;BME280;10804;48.988;2.408;2022-12-07T04:40:53;101338.22;;;6.14;65.46
21290;BME280;10804;48.988;2.408;2022-12-07T04:43:21;101333.88;;;6.16;65.46
21290;BME280;10804;48.988;2.408;2022-12-07T04:45:48;101343.38;;;6.14;65.29
21290;BME280;10804;48.988;2.408;2022-12-07T04:48:16;101333.88;;;6.13;65.37
21290;BME280;10804;48.988;2.408;2022-12-07T04:50:47;101341.66;;;6.16;65.33
21290;BME280;10804;48.988;2.408;2022-12-07T04:53:14;101333.88;;;6.13;65.42
21290;BME280;10804;48.988;2.408;2022-12-07T04:55:42;101337.34;;;6.15;65.48
21290;BME280;10804;48.988;2.408;2022-12-07T04:58:09;101338.22;;;6.14;65.50
21290;BME280;10804;48.988;2.408;2022-12-07T05:00:37;101341.66;;;6.18;65.29
21290;BME280;10804;48.988;2.408;2022-12-07T05:03:04;101342.53;;;6.15;65.39
21290;BME280;10804;48.988;2.408;2022-12-07T05:05:32;101338.22;;;6.16;65.40
21290;BME280;10804;48.988;2.408;2022-12-07T05:08:00;101342.53;;;6.15;65.31
21290;BME280;10804;48.988;2.408;2022-12-07T05:10:28;101337.34;;;6.15;65.29
21290;BME280;10804;48.988;2.408;2022-12-07T05:12:55;101344.25;;;6.15;65.27
21290;BME280;10804;48.988;2.408;2022-12-07T05:15:22;101344.25;;;6.13;65.55
21290;BME280;10804;48.988;2.408;2022-12-07T05:17:50;101344.25;;;6.18;65.54
21290;BME280;10804;48.988;2.408;2022-12-07T05:20:18;101345.09;;;6.15;65.22
21290;BME280;10804;48.988;2.408;2022-12-07T05:22:45;101342.53;;;6.17;65.30
21290;BME280;10804;48.988;2.408;2022-12-07T05:25:14;101337.34;;;6.15;65.29
21290;BME280;10804;48.988;2.408;2022-12-07T05:27:42;101336.50;;;6.18;65.37
21290;BME280;10804;48.988;2.408;2022-12-07T05:30:10;101337.34;;;6.15;64.99
21290;BME280;10804;48.988;2.408;2022-12-07T05:32:37;101341.66;;;6.18;65.30
21290;BME280;10804;48.988;2.408;2022-12-07T05:35:05;101335.63;;;6.19;65.21
21290;BME280;10804;48.988;2.408;2022-12-07T05:37:33;101336.47;;;6.16;65.61
21290;BME280;10804;48.988;2.408;2022-12-07T05:40:00;101339.06;;;6.18;65.29
21290;BME280;10804;48.988;2.408;2022-12-07T05:42:29;101339.94;;;6.20;65.29
21290;BME280;10804;48.988;2.408;2022-12-07T05:44:56;101339.94;;;6.17;65.22
21290;BME280;10804;48.988;2.408;2022-12-07T05:47:24;101339.97;;;6.18;65.19
21290;BME280;10804;48.988;2.408;2022-12-07T05:49:51;101331.28;;;6.16;65.52
21290;BME280;10804;48.988;2.408;2022-12-07T05:52:19;101337.38;;;6.18;64.97
21290;BME280;10804;48.988;2.408;2022-12-07T05:54:46;101343.38;;;6.22;65.07
21290;BME280;10804;48.988;2.408;2022-12-07T05:57:14;101338.22;;;6.19;65.35
21290;BME280;10804;48.988;2.408;2022-12-07T05:59:42;101340.81;;;6.20;65.24
21290;BME280;10804;48.988;2.408;2022-12-07T06:02:12;101339.09;;;6.15;65.26
21290;BME280;10804;48.988;2.408;2022-12-07T06:04:41;101336.50;;;6.19;65.00
21290;BME280;10804;48.988;2.408;2022-12-07T06:07:10;101328.72;;;6.21;65.04
21290;BME280;10804;48.988;2.408;2022-12-07T06:09:38;101330.44;;;6.20;64.97
21290;BME280;10804;48.988;2.408;2022-12-07T06:12:06;101327.84;;;6.22;65.07
21290;BME280;10804;48.988;2.408;2022-12-07T06:14:52;101329.59;;;6.21;65.17
21290;BME280;10804;48.988;2.408;2022-12-07T06:17:20;101322.66;;;6.22;65.14
21290;BME280;10804;48.988;2.408;2022-12-07T06:19:47;101323.56;;;6.19;65.15
21290;BME280;10804;48.988;2.408;2022-12-07T06:22:14;101324.41;;;6.21;65.28
21290;BME280;10804;48.988;2.408;2022-12-07T06:24:42;101336.47;;;6.21;65.00
21290;BME280;10804;48.988;2.408;2022-12-07T06:27:10;101330.44;;;6.23;65.12
21290;BME280;10804;48.988;2.408;2022-12-07T06:29:37;101327.84;;;6.19;65.26
21290;BME280;10804;48.988;2.408;2022-12-07T06:32:06;101327.84;;;6.23;65.28
21290;BME280;10804;48.988;2.408;2022-12-07T06:34:33;101337.34;;;6.24;64.83
21290;BME280;10804;48.988;2.408;2022-12-07T06:37:01;101331.31;;;6.22;65.10
21290;BME280;10804;48.988;2.408;2022-12-07T06:39:28;101333.91;;;6.22;65.06
21290;BME280;10804;48.988;2.408;2022-12-07T06:41:56;101332.19;;;6.18;65.40
21290;BME280;10804;48.988;2.408;2022-12-07T06:44:24;101340.81;;;6.20;65.31
21290;BME280;10804;48.988;2.408;2022-12-07T06:46:52;101346.00;;;6.23;65.27
21290;BME280;10804;48.988;2.408;2022-12-07T06:49:21;101341.69;;;6.24;65.20
21290;BME280;10804;48.988;2.408;2022-12-07T06:51:48;101331.31;;;6.24;65.14
21290;BME280;10804;48.988;2.408;2022-12-07T06:54:16;101330.44;;;6.23;65.26
21290;BME280;10804;48.988;2.408;2022-12-07T06:56:44;101325.25;;;6.22;65.04
21290;BME280;10804;48.988;2.408;2022-12-07T06:59:11;101336.50;;;6.27;65.19
21290;BME280;10804;48.988;2.408;2022-12-07T07:01:38;101339.94;;;6.26;65.15
21290;BME280;10804;48.988;2.408;2022-12-07T07:04:06;101336.47;;;6.25;65.01
21290;BME280;10804;48.988;2.408;2022-12-07T07:06:34;101336.47;;;6.25;64.99
21290;BME280;10804;48.988;2.408;2022-12-07T07:09:02;101335.63;;;6.23;65.29
21290;BME280;10804;48.988;2.408;2022-12-07T07:11:29;101342.53;;;6.24;65.19
21290;BME280;10804;48.988;2.408;2022-12-07T07:13:57;101346.00;;;6.26;65.11
21290;BME280;10804;48.988;2.408;2022-12-07T07:16:28;101335.63;;;6.20;65.35
21290;BME280;10804;48.988;2.408;2022-12-07T07:18:56;101333.91;;;6.22;64.95
21290;BME280;10804;48.988;2.408;2022-12-07T07:21:24;101346.00;;;6.26;65.19
21290;BME280;10804;48.988;2.408;2022-12-07T07:23:53;101340.84;;;6.26;65.10
21290;BME280;10804;48.988;2.408;2022-12-07T07:26:20;101347.72;;;6.24;65.05
21290;BME280;10804;48.988;2.408;2022-12-07T07:28:47;101346.84;;;6.25;65.00
21290;BME280;10804;48.988;2.408;2022-12-07T07:31:15;101345.13;;;6.26;65.36
21290;BME280;10804;48.988;2.408;2022-12-07T07:33:42;101339.09;;;6.30;64.71
21290;BME280;10804;48.988;2.408;2022-12-07T07:36:09;101337.34;;;6.24;65.06
21290;BME280;10804;48.988;2.408;2022-12-07T07:38:36;101340.84;;;6.26;65.08
21290;BME280;10804;48.988;2.408;2022-12-07T07:41:05;101342.53;;;6.29;64.91
21290;BME280;10804;48.988;2.408;2022-12-07T07:43:33;101339.94;;;6.26;65.23
21290;BME280;10804;48.988;2.408;2022-12-07T07:46:00;101340.81;;;6.29;65.01
21290;BME280;10804;48.988;2.408;2022-12-07T07:48:28;101351.19;;;6.29;64.95
21290;BME280;10804;48.988;2.408;2022-12-07T07:50:55;101353.75;;;6.28;65.15
21290;BME280;10804;48.988;2.408;2022-12-07T07:53:22;101351.19;;;6.29;65.06
21290;BME280;10804;48.988;2.408;2022-12-07T07:55:51;101341.69;;;6.28;65.10
21290;BME280;10804;48.988;2.408;2022-12-07T07:58:21;101351.16;;;6.28;64.95
21290;BME280;10804;48.988;2.408;2022-12-07T08:00:48;101347.72;;;6.30;65.25
21290;BME280;10804;48.988;2.408;2022-12-07T08:03:16;101350.31;;;6.30;65.08
21290;BME280;10804;48.988;2.408;2022-12-07T08:05:43;101354.66;;;6.30;64.97
21290;BME280;10804;48.988;2.408;2022-12-07T08:08:10;101355.50;;;6.26;65.32
21290;BME280;10804;48.988;2.408;2022-12-07T08:10:39;101356.34;;;6.29;65.08
21290;BME280;10804;48.988;2.408;2022-12-07T08:13:06;101344.28;;;6.28;65.09
21290;BME280;10804;48.988;2.408;2022-12-07T08:15:43;101355.47;;;6.29;64.96
21290;BME280;10804;48.988;2.408;2022-12-07T08:18:11;101354.63;;;6.27;65.03
21290;BME280;10804;48.988;2.408;2022-12-07T08:20:39;101363.28;;;6.27;65.15
21290;BME280;10804;48.988;2.408;2022-12-07T08:23:08;101360.69;;;6.30;65.08
21290;BME280;10804;48.988;2.408;2022-12-07T08:25:36;101370.16;;;6.31;64.89
21290;BME280;10804;48.988;2.408;2022-12-07T08:28:04;101371.91;;;6.34;64.92
21290;BME280;10804;48.988;2.408;2022-12-07T08:30:31;101371.88;;;6.32;64.97
21290;BME280;10804;48.988;2.408;2022-12-07T08:33:00;101371.88;;;6.32;64.84
21290;BME280;10804;48.988;2.408;2022-12-07T08:35:27;101375.38;;;6.33;64.93
21290;BME280;10804;48.988;2.408;2022-12-07T08:37:55;101370.19;;;6.34;65.01
21290;BME280;10804;48.988;2.408;2022-12-07T08:40:23;101375.38;;;6.34;64.94
21290;BME280;10804;48.988;2.408;2022-12-07T08:42:51;101372.75;;;6.36;65.11
21290;BME280;10804;48.988;2.408;2022-12-07T08:45:19;101371.03;;;6.39;64.77
21290;BME280;10804;48.988;2.408;2022-12-07T08:47:51;101371.91;;;6.37;64.88
21290;BME280;10804;48.988;2.408;2022-12-07T08:50:22;101371.91;;;6.38;65.09
21290;BME280;10804;48.988;2.408;2022-12-07T08:52:51;101366.72;;;6.38;65.16
21290;BME280;10804;48.988;2.408;2022-12-07T08:55:20;101371.91;;;6.38;65.13
21290;BME280;10804;48.988;2.408;2022-12-07T08:57:48;101376.25;;;6.38;64.71
21290;BME280;10804;48.988;2.408;2022-12-07T09:00:16;101382.28;;;6.40;65.20
21290;BME280;10804;48.988;2.408;2022-12-07T09:02:44;101373.66;;;6.42;64.76
21290;BME280;10804;48.988;2.408;2022-12-07T09:05:12;101370.19;;;6.43;64.72
21290;BME280;10804;48.988;2.408;2022-12-07T09:07:43;101375.38;;;6.42;64.92
21290;BME280;10804;48.988;2.408;2022-12-07T09:10:11;101371.94;;;6.44;64.81
21290;BME280;10804;48.988;2.408;2022-12-07T09:12:39;101364.16;;;6.44;64.72
21290;BME280;10804;48.988;2.408;2022-12-07T09:15:09;101361.56;;;6.47;64.78
21290;BME280;10804;48.988;2.408;2022-12-07T09:17:37;101364.16;;;6.46;64.88
21290;BME280;10804;48.988;2.408;2022-12-07T09:20:06;101369.31;;;6.47;65.05
21290;BME280;10804;48.988;2.408;2022-12-07T09:22:33;101371.06;;;6.47;64.58
21290;BME280;10804;48.988;2.408;2022-12-07T09:25:02;101365.03;;;6.49;64.93
21290;BME280;10804;48.988;2.408;2022-12-07T09:27:31;101369.31;;;6.52;64.65
21290;BME280;10804;48.988;2.408;2022-12-07T09:29:58;101370.19;;;6.52;64.66
21290;BME280;10804;48.988;2.408;2022-12-07T09:32:26;101373.66;;;6.54;64.63
21290;BME280;10804;48.988;2.408;2022-12-07T09:34:55;101377.97;;;6.57;64.56
21290;BME280;10804;48.988;2.408;2022-12-07T09:37:22;101365.00;;;6.55;64.57
21290;BME280;10804;48.988;2.408;2022-12-07T09:39:50;101363.31;;;6.57;64.79
21290;BME280;10804;48.988;2.408;2022-12-07T09:42:28;101368.50;;;6.57;64.94
21290;BME280;10804;48.988;2.408;2022-12-07T09:44:56;101359.84;;;6.61;64.66
21290;BME280;10804;48.988;2.408;2022-12-07T09:47:25;101368.47;;;6.63;64.71
21290;BME280;10804;48.988;2.408;2022-12-07T09:49:54;101364.16;;;6.64;64.89
21290;BME280;10804;48.988;2.408;2022-12-07T09:52:26;101357.25;;;6.67;64.72
21290;BME280;10804;48.988;2.408;2022-12-07T09:54:54;101358.97;;;6.68;64.76
21290;BME280;10804;48.988;2.408;2022-12-07T09:57:27;101355.53;;;6.69;64.57
21290;BME280;10804;48.988;2.408;2022-12-07T09:59:56;101349.47;;;6.72;64.41
21290;BME280;10804;48.988;2.408;2022-12-07T10:02:35;101348.59;;;6.73;64.55
21290;BME280;10804;48.988;2.408;2022-12-07T10:05:04;101352.94;;;6.75;64.58
21290;BME280;10804;48.988;2.408;2022-12-07T10:07:32;101351.22;;;6.79;64.51
21290;BME280;10804;48.988;2.408;2022-12-07T10:10:03;101354.66;;;6.81;64.66
21290;BME280;10804;48.988;2.408;2022-12-07T10:12:52;101359.84;;;6.82;64.23
21290;BME280;10804;48.988;2.408;2022-12-07T10:15:20;101360.69;;;6.83;64.24
21290;BME280;10804;48.988;2.408;2022-12-07T10:17:48;101347.75;;;6.84;64.65
21290;BME280;10804;48.988;2.408;2022-12-07T10:20:20;101347.72;;;6.89;64.32
21290;BME280;10804;48.988;2.408;2022-12-07T10:22:57;101343.41;;;6.92;64.00
21290;BME280;10804;48.988;2.408;2022-12-07T10:25:27;101337.38;;;6.90;64.27
21290;BME280;10804;48.988;2.408;2022-12-07T10:28:17;101350.31;;;6.95;64.23
21290;BME280;10804;48.988;2.408;2022-12-07T10:30:51;101337.38;;;6.96;64.10
21290;BME280;10804;48.988;2.408;2022-12-07T10:33:30;101339.94;;;7.02;64.08
21290;BME280;10804;48.988;2.408;2022-12-07T10:35:59;101336.50;;;6.99;64.45
21290;BME280;10804;48.988;2.408;2022-12-07T10:38:27;101332.16;;;6.99;64.52
21290;BME280;10804;48.988;2.408;2022-12-07T10:41:07;101330.44;;;7.04;64.46
21290;BME280;10804;48.988;2.408;2022-12-07T10:43:36;101327.81;;;7.06;64.18
21290;BME280;10804;48.988;2.408;2022-12-07T10:49:04;101308.84;;;7.07;64.12
21290;BME280;10804;48.988;2.408;2022-12-07T10:51:43;101309.69;;;7.07;64.22
21290;BME280;10804;48.988;2.408;2022-12-07T10:54:20;101302.75;;;7.09;64.43
21290;BME280;10804;48.988;2.408;2022-12-07T10:57:02;101296.69;;;7.16;64.05
21290;BME280;10804;48.988;2.408;2022-12-07T10:59:58;101270.78;;;7.09;64.39
21290;BME280;10804;48.988;2.408;2022-12-07T11:02:45;101280.25;;;7.20;64.33
21290;BME280;10804;48.988;2.408;2022-12-07T11:05:22;101283.72;;;7.25;64.08
21290;BME280;10804;48.988;2.408;2022-12-07T11:08:00;101281.09;;;7.30;63.79
21290;BME280;10804;48.988;2.408;2022-12-07T11:10:35;101275.88;;;7.31;64.17
21290;BME280;10804;48.988;2.408;2022-12-07T11:13:19;101272.41;;;7.38;64.03
21290;BME280;10804;48.988;2.408;2022-12-07T11:16:08;101270.69;;;7.39;63.78
21290;BME280;10804;48.988;2.408;2022-12-07T11:18:49;101266.34;;;7.42;64.16
21290;BME280;10804;48.988;2.408;2022-12-07T11:21:25;101256.84;;;7.40;64.22
21290;BME280;10804;48.988;2.408;2022-12-07T11:24:01;101262.88;;;7.45;63.71
21290;BME280;10804;48.988;2.408;2022-12-07T11:26:41;101259.38;;;7.50;63.80
21290;BME280;10804;48.988;2.408;2022-12-07T11:29:27;101252.41;;;7.55;63.59
21290;BME280;10804;48.988;2.408;2022-12-07T11:32:04;101254.09;;;7.62;63.54
21290;BME280;10804;48.988;2.408;2022-12-07T11:34:39;101255.84;;;7.66;63.22
21290;BME280;10804;48.988;2.408;2022-12-07T11:37:15;101240.22;;;7.69;63.46
21290;BME280;10804;48.988;2.408;2022-12-07T11:39:49;101238.50;;;7.71;62.79
21290;BME280;10804;48.988;2.408;2022-12-07T11:42:21;101235.84;;;7.80;62.82
21290;BME280;10804;48.988;2.408;2022-12-07T11:44:52;101237.53;;;7.84;63.45
21290;BME280;10804;48.988;2.408;2022-12-07T11:47:26;101235.78;;;7.89;63.77
21290;BME280;10804;48.988;2.408;2022-12-07T11:50:01;101228.81;;;7.95;63.54
21290;BME280;10804;48.988;2.408;2022-12-07T11:52:32;101224.44;;;8.00;63.55
21290;BME280;10804;48.988;2.408;2022-12-07T11:55:16;101223.50;;;8.10;64.48
21290;BME280;10804;48.988;2.408;2022-12-07T11:57:48;101216.50;;;8.18;64.70
21290;BME280;10804;48.988;2.408;2022-12-07T12:00:19;101215.59;;;8.25;63.96
21290;BME280;10804;48.988;2.408;2022-12-07T12:02:52;101210.38;;;8.33;64.50
21290;BME280;10804;48.988;2.408;2022-12-07T12:05:23;101206.84;;;8.40;63.53
21290;BME280;10804;48.988;2.408;2022-12-07T12:07:57;101205.88;;;8.47;64.38
21290;BME280;10804;48.988;2.408;2022-12-07T12:10:35;101202.34;;;8.55;64.37
21290;BME280;10804;48.988;2.408;2022-12-07T12:13:27;101204.88;;;8.63;63.56
21290;BME280;10804;48.988;2.408;2022-12-07T12:16:12;101196.97;;;8.70;63.78
21290;BME280;10804;48.988;2.408;2022-12-07T12:19:10;101189.06;;;8.79;63.74
21290;BME280;10804;48.988;2.408;2022-12-07T12:21:42;101183.81;;;8.84;63.59
21290;BME280;10804;48.988;2.408;2022-12-07T12:24:13;101182.88;;;8.92;63.25
21290;BME280;10804;48.988;2.408;2022-12-07T12:26:49;101183.63;;;8.99;62.80
21290;BME280;10804;48.988;2.408;2022-12-07T12:29:21;101200.00;;;9.08;62.61
21290;BME280;10804;48.988;2.408;2022-12-07T12:32:06;101192.97;;;9.15;63.10
21290;BME280;10804;48.988;2.408;2022-12-07T12:34:41;101187.69;;;9.22;62.51
21290;BME280;10804;48.988;2.408;2022-12-07T12:37:41;101179.81;;;9.27;62.64
21290;BME280;10804;48.988;2.408;2022-12-07T12:40:40;101181.47;;;9.35;62.57
21290;BME280;10804;48.988;2.408;2022-12-07T12:43:46;101178.75;;;9.41;62.18
21290;BME280;10804;48.988;2.408;2022-12-07T12:46:44;101176.97;;;9.45;62.03
21290;BME280;10804;48.988;2.408;2022-12-07T12:49:47;101177.78;;;9.50;62.27
21290;BME280;10804;48.988;2.408;2022-12-07T12:52:57;101165.56;;;9.53;62.08
21290;BME280;10804;48.988;2.408;2022-12-07T12:55:46;101161.19;;;9.55;61.70
21290;BME280;10804;48.988;2.408;2022-12-07T12:58:31;101163.78;;;9.57;61.47
21290;BME280;10804;48.988;2.408;2022-12-07T13:01:37;101164.63;;;9.59;61.45
21290;BME280;10804;48.988;2.408;2022-12-07T13:04:30;101155.91;;;9.61;61.61
21290;BME280;10804;48.988;2.408;2022-12-07T13:07:02;101158.50;;;9.63;61.11
21290;BME280;10804;48.988;2.408;2022-12-07T13:09:33;101149.78;;;9.64;61.58
21290;BME280;10804;48.988;2.408;2022-12-07T13:12:04;101141.97;;;9.64;61.04
21290;BME280;10804;48.988;2.408;2022-12-07T13:14:52;101154.13;;;9.65;61.38
21290;BME280;10804;48.988;2.408;2022-12-07T13:20:48;101146.31;;;9.63;61.33
21290;BME280;10804;48.988;2.408;2022-12-07T13:23:22;101145.44;;;9.64;61.28
21290;BME280;10804;48.988;2.408;2022-12-07T13:26:00;101139.38;;;9.64;61.33
21290;BME280;10804;48.988;2.408;2022-12-07T13:28:34;101133.28;;;9.63;61.08
21290;BME280;10804;48.988;2.408;2022-12-07T13:31:13;101134.19;;;9.62;61.16
21290;BME280;10804;48.988;2.408;2022-12-07T13:33:44;101132.44;;;9.63;61.05
21290;BME280;10804;48.988;2.408;2022-12-07T13:36:19;101122.94;;;9.62;61.45
21290;BME280;10804;48.988;2.408;2022-12-07T13:38:55;101123.78;;;9.61;61.41